Time;durP1;ratioP1;P1;durP2;ratioP2;P2;SDS_P1;SDS_P2;PMS_P1;PMS_P2;Temp;Humidity;BMP_temperature;BMP_pressure;BME280_temperature;BME280_humidity;BME280_pressure;Samples;Min_cycle;Max_cycle;Signal;HPM_P1;HPM_P2
2022/08/10 00:01:18;;;;;;;3.97;3.00;;;18.20;85.00;;;;;;5030393;28;20490;-68
2022/08/10 00:03:46;;;;;;;3.93;3.00;;;18.10;85.30;;;;;;5030954;28;20441;-68
2022/08/10 00:06:13;;;;;;;7.90;3.70;;;18.10;85.80;;;;;;5030262;28;20464;-68
2022/08/10 00:08:41;;;;;;;4.03;3.10;;;18.00;85.60;;;;;;5030517;28;20449;-68
2022/08/10 00:11:08;;;;;;;3.50;3.00;;;17.90;85.80;;;;;;5030434;28;20452;-68
2022/08/10 00:13:36;;;;;;;4.40;3.80;;;17.90;86.50;;;;;;5030442;28;20455;-68
2022/08/10 00:16:03;;;;;;;3.50;3.20;;;17.80;86.90;;;;;;5030045;28;20468;-68
2022/08/10 00:18:30;;;;;;;4.30;3.83;;;17.90;87.10;;;;;;5030508;28;20524;-68
2022/08/10 00:20:56;;;;;;;3.67;3.30;;;17.80;86.80;;;;;;5030415;28;20449;-68
2022/08/10 00:23:23;;;;;;;7.63;3.10;;;17.80;88.10;;;;;;5030336;28;20445;-68
2022/08/10 00:25:51;;;;;;;4.80;3.40;;;17.80;87.90;;;;;;5029638;28;20551;-68
2022/08/10 00:28:18;;;;;;;4.60;3.67;;;17.80;88.40;;;;;;5030221;28;20449;-68
2022/08/10 00:30:45;;;;;;;6.60;3.30;;;17.80;88.60;;;;;;5030335;28;20935;-68
2022/08/10 00:33:12;;;;;;;5.07;3.20;;;17.80;89.10;;;;;;5030262;28;21315;-68
2022/08/10 00:35:39;;;;;;;3.93;3.53;;;17.80;89.40;;;;;;5029780;28;20536;-68
2022/08/10 00:38:05;;;;;;;3.63;2.87;;;17.70;90.00;;;;;;5030233;28;20475;-67
2022/08/10 00:40:32;;;;;;;5.23;3.13;;;17.60;90.40;;;;;;5030057;28;20452;-68
2022/08/10 00:43:00;;;;;;;4.40;3.17;;;17.60;90.80;;;;;;5029910;28;20481;-67
2022/08/10 00:45:27;;;;;;;6.40;3.80;;;17.50;91.00;;;;;;5029645;28;20453;-68
2022/08/10 00:47:54;;;;;;;3.90;3.40;;;17.50;91.10;;;;;;5030038;28;20476;-68
2022/08/10 00:50:21;;;;;;;4.73;2.90;;;17.40;91.40;;;;;;5029111;28;20498;-67
2022/08/10 00:52:48;;;;;;;3.27;2.97;;;17.40;92.00;;;;;;5030108;28;20452;-67
2022/08/10 00:55:16;;;;;;;4.57;3.00;;;17.30;91.90;;;;;;5029465;28;20554;-69
2022/08/10 00:57:43;;;;;;;6.30;3.07;;;17.30;91.80;;;;;;5030055;28;20522;-68
2022/08/10 01:00:12;;;;;;;4.63;3.80;;;17.40;91.80;;;;;;5029974;28;20449;-68
2022/08/10 01:02:40;;;;;;;5.57;3.53;;;17.40;91.70;;;;;;5029683;28;20481;-68
2022/08/10 01:05:09;;;;;;;3.63;3.30;;;17.40;91.80;;;;;;5029638;28;20536;-67
2022/08/10 01:08:03;;;;;;;4.80;3.23;;;17.30;92.10;;;;;;5030020;28;20949;-68
2022/08/10 01:10:44;;;;;;;6.33;3.90;;;17.30;92.60;;;;;;5029859;28;20445;-67
2022/08/10 01:13:16;;;;;;;4.83;3.17;;;17.30;92.80;;;;;;5030056;28;20809;-68
2022/08/10 01:15:57;;;;;;;3.83;3.50;;;17.30;92.80;;;;;;5029464;28;20536;-67
2022/08/10 01:18:36;;;;;;;5.13;3.80;;;17.20;92.70;;;;;;5030448;28;20475;-68
2022/08/10 01:21:38;;;;;;;3.93;3.53;;;17.20;93.00;;;;;;5030575;28;20450;-68
2022/08/10 01:24:32;;;;;;;3.83;3.30;;;17.30;92.90;;;;;;5023834;28;20456;-68
2022/08/10 01:27:15;;;;;;;5.17;3.53;;;17.30;92.90;;;;;;5016598;28;20488;-68
2022/08/10 01:30:03;;;;;;;3.63;3.27;;;17.30;93.00;;;;;;5029736;28;20453;-67
2022/08/10 01:32:48;;;;;;;4.67;3.53;;;17.30;93.30;;;;;;5029816;28;20798;-68
2022/08/10 01:35:22;;;;;;;3.87;3.23;;;17.30;93.30;;;;;;5029436;28;20445;-67
2022/08/10 01:38:00;;;;;;;3.50;3.20;;;17.30;93.40;;;;;;5029593;28;20469;-67
2022/08/10 01:40:28;;;;;;;4.10;3.17;;;17.20;93.80;;;;;;5029628;28;20448;-68
2022/08/10 01:42:58;;;;;;;4.67;3.33;;;17.20;94.20;;;;;;5029392;28;20560;-68
2022/08/10 01:45:29;;;;;;;3.80;3.23;;;17.20;94.40;;;;;;5029018;28;20834;-68
2022/08/10 01:50:47;;;;;;;4.13;3.43;;;17.10;95.00;;;;;;5029395;28;20799;-68
2022/08/10 01:53:32;;;;;;;5.13;3.20;;;17.00;95.60;;;;;;5029256;28;20445;-68
2022/08/10 01:56:00;;;;;;;6.13;4.00;;;16.90;95.90;;;;;;5028883;28;20476;-67
2022/08/10 01:58:29;;;;;;;3.30;3.00;;;16.80;96.40;;;;;;5029281;28;20445;-68
2022/08/10 02:01:00;;;;;;;6.50;3.50;;;16.80;96.70;;;;;;5030432;28;20825;-67
2022/08/10 02:03:29;;;;;;;3.47;3.17;;;16.70;97.10;;;;;;5032848;28;20491;-68
2022/08/10 02:05:57;;;;;;;4.03;3.30;;;16.70;97.50;;;;;;5032493;28;20468;-68
2022/08/10 02:08:26;;;;;;;4.80;3.60;;;16.70;97.70;;;;;;5032732;28;20984;-68
2022/08/10 02:10:55;;;;;;;3.80;3.50;;;16.80;97.90;;;;;;5033026;28;20453;-67
2022/08/10 02:13:22;;;;;;;5.47;4.43;;;16.80;98.10;;;;;;5032970;28;20799;-68
2022/08/10 02:15:52;;;;;;;3.43;3.13;;;16.70;98.00;;;;;;5032566;28;20527;-68
2022/08/10 02:18:22;;;;;;;4.33;3.93;;;16.70;98.10;;;;;;5032601;28;20444;-67
2022/08/10 02:20:51;;;;;;;6.17;3.67;;;16.70;99.20;;;;;;5032736;28;20819;-68
2022/08/10 02:23:22;;;;;;;3.17;2.87;;;16.60;99.00;;;;;;5032646;28;20499;-68
2022/08/10 02:25:50;;;;;;;3.57;3.17;;;16.60;99.40;;;;;;5032117;28;21002;-68
2022/08/10 02:28:19;;;;;;;5.57;3.40;;;16.60;99.50;;;;;;5032469;28;20455;-67
2022/08/10 02:30:48;;;;;;;3.47;3.17;;;16.60;99.30;;;;;;5032423;28;20449;-68
2022/08/10 02:33:18;;;;;;;5.67;3.40;;;16.60;99.30;;;;;;5032360;28;20899;-68
2022/08/10 02:35:49;;;;;;;5.43;3.63;;;16.70;99.60;;;;;;5032161;28;20474;-68
2022/08/10 02:38:20;;;;;;;4.60;3.63;;;16.60;99.90;;;;;;5032432;28;20452;-68
2022/08/10 02:40:51;;;;;;;4.70;3.70;;;16.60;99.90;;;;;;5032373;28;20832;-68
2022/08/10 02:43:22;;;;;;;3.70;3.40;;;16.50;99.90;;;;;;5032253;28;20860;-67
2022/08/10 02:45:54;;;;;;;4.70;3.60;;;16.50;99.90;;;;;;5031662;28;20468;-68
2022/08/10 02:48:28;;;;;;;3.90;3.43;;;16.40;99.90;;;;;;5032363;28;20449;-68
2022/08/10 02:50:59;;;;;;;4.20;3.73;;;16.30;99.90;;;;;;5032324;28;20448;-68
2022/08/10 02:53:34;;;;;;;4.73;4.30;;;16.30;99.90;;;;;;5032219;28;20519;-68
2022/08/10 02:56:05;;;;;;;6.53;3.40;;;16.30;99.90;;;;;;5031662;28;20487;-67
2022/08/10 02:58:39;;;;;;;4.60;4.20;;;16.20;99.90;;;;;;5032010;28;20448;-67
2022/08/10 03:01:10;;;;;;;3.90;3.53;;;16.10;99.90;;;;;;5032204;28;20444;-68
2022/08/10 03:03:43;;;;;;;4.40;4.00;;;16.10;99.90;;;;;;5031885;28;20492;-68
2022/08/10 03:06:17;;;;;;;4.73;4.33;;;16.10;99.90;;;;;;5031540;28;20519;-67
2022/08/10 03:08:45;;;;;;;4.83;4.00;;;16.10;99.90;;;;;;5032737;28;20445;-67
2022/08/10 03:11:17;;;;;;;5.60;3.77;;;16.20;99.90;;;;;;5032804;28;20475;-68
2022/08/10 03:13:46;;;;;;;4.37;3.87;;;16.10;99.90;;;;;;5032105;28;20456;-68
2022/08/10 03:16:14;;;;;;;6.10;3.50;;;16.20;99.90;;;;;;5032336;28;20479;-68
2022/08/10 03:18:42;;;;;;;6.40;3.90;;;16.20;99.90;;;;;;5032704;28;20445;-67
2022/08/10 03:21:09;;;;;;;4.37;3.97;;;16.10;99.90;;;;;;5032573;28;20445;-68
2022/08/10 03:23:39;;;;;;;4.47;4.07;;;16.00;99.90;;;;;;5031931;28;21053;-68
2022/08/10 03:26:07;;;;;;;4.67;4.27;;;15.90;99.90;;;;;;5031216;28;20472;-68
2022/08/10 03:28:35;;;;;;;4.40;4.00;;;15.90;99.90;;;;;;5031615;28;20453;-68
2022/08/10 03:31:02;;;;;;;4.50;4.10;;;15.80;99.90;;;;;;5031332;28;20965;-67
2022/08/10 03:33:33;;;;;;;4.20;3.90;;;15.70;99.90;;;;;;5031242;28;20440;-67
2022/08/10 03:36:00;;;;;;;4.90;3.83;;;15.70;99.90;;;;;;5031306;28;20473;-67
2022/08/10 03:38:27;;;;;;;5.60;3.73;;;15.70;99.90;;;;;;5031278;28;20445;-68
2022/08/10 03:40:58;;;;;;;4.20;3.80;;;15.70;99.90;;;;;;5031242;28;20444;-68
2022/08/10 03:43:26;;;;;;;3.80;3.40;;;15.60;99.90;;;;;;5031114;28;20481;-67
2022/08/10 03:45:57;;;;;;;4.00;3.70;;;15.60;99.90;;;;;;5030815;28;20893;-68
2022/08/10 03:48:25;;;;;;;5.17;4.67;;;15.50;99.90;;;;;;5031349;28;20437;-68
2022/08/10 03:50:53;;;;;;;4.67;4.23;;;15.50;99.90;;;;;;5031072;28;20448;-68
2022/08/10 03:53:21;;;;;;;6.30;4.27;;;15.50;99.90;;;;;;5031060;28;20437;-68
2022/08/10 03:55:48;;;;;;;11.47;4.53;;;15.50;99.90;;;;;;5030729;28;20469;-68
2022/08/10 03:58:16;;;;;;;6.23;4.07;;;15.50;99.90;;;;;;5030924;28;20455;-67
2022/08/10 04:00:43;;;;;;;8.30;4.40;;;15.50;99.90;;;;;;5030775;28;20445;-68
2022/08/10 04:03:11;;;;;;;8.20;5.60;;;15.40;99.90;;;;;;5030667;28;21050;-67
2022/08/10 04:05:38;;;;;;;9.53;4.63;;;15.40;99.90;;;;;;5030436;28;20467;-68
2022/08/10 04:08:05;;;;;;;14.80;5.10;;;15.30;99.90;;;;;;5030657;28;20947;-67
2022/08/10 04:10:32;;;;;;;7.97;4.67;;;15.40;99.90;;;;;;5030594;28;20448;-67
2022/08/10 04:12:59;;;;;;;10.13;4.90;;;15.40;99.90;;;;;;5030360;28;20454;-68
2022/08/10 04:15:27;;;;;;;8.90;4.43;;;15.50;99.90;;;;;;5029945;28;20440;-67
2022/08/10 04:17:54;;;;;;;5.50;4.10;;;15.50;99.90;;;;;;5030264;28;20943;-67
2022/08/10 04:20:27;;;;;;;10.97;4.90;;;15.40;99.90;;;;;;5030363;28;20455;-67
2022/08/10 04:22:56;;;;;;;9.30;4.60;;;15.40;99.90;;;;;;5030356;28;20568;-67
2022/08/10 04:25:25;;;;;;;7.50;4.40;;;15.40;99.90;;;;;;5029886;28;20472;-67
2022/08/10 04:27:53;;;;;;;6.23;4.33;;;15.30;99.90;;;;;;5030021;28;20853;-68
2022/08/10 04:30:20;;;;;;;7.20;4.20;;;15.30;99.90;;;;;;5030072;28;20452;-68
2022/08/10 04:32:52;;;;;;;6.90;4.80;;;15.30;99.90;;;;;;5030363;28;20445;-68
2022/08/10 04:35:22;;;;;;;7.43;4.70;;;15.30;99.90;;;;;;5029843;28;20455;-67
2022/08/10 04:37:50;;;;;;;5.33;4.67;;;15.10;99.90;;;;;;5030078;28;20475;-67
2022/08/10 04:40:18;;;;;;;5.53;4.13;;;15.10;99.90;;;;;;5029882;28;20460;-67
2022/08/10 04:42:45;;;;;;;8.10;4.30;;;15.10;99.90;;;;;;5030030;28;20488;-67
2022/08/10 04:45:14;;;;;;;4.97;4.57;;;15.10;99.90;;;;;;5029575;28;20969;-67
2022/08/10 04:47:41;;;;;;;4.80;4.40;;;15.20;99.90;;;;;;5029746;28;20461;-68
2022/08/10 04:50:09;;;;;;;5.50;4.83;;;15.20;99.90;;;;;;5029863;28;21006;-68
2022/08/10 04:52:36;;;;;;;6.00;4.97;;;15.20;99.90;;;;;;5029844;28;20445;-67
2022/08/10 04:55:04;;;;;;;5.67;4.40;;;15.20;99.90;;;;;;5029558;28;20459;-67
2022/08/10 04:57:31;;;;;;;5.70;4.83;;;15.40;99.90;;;;;;5029669;28;20994;-67
2022/08/10 04:59:58;;;;;;;11.20;5.07;;;15.40;99.90;;;;;;5029789;28;20457;-67
2022/08/10 05:02:24;;;;;;;5.83;4.90;;;15.40;99.90;;;;;;5029670;28;20495;-67
2022/08/10 05:04:51;;;;;;;5.37;4.50;;;15.40;99.90;;;;;;5029526;28;20456;-68
2022/08/10 05:07:19;;;;;;;5.73;5.20;;;15.50;99.90;;;;;;5029589;28;20483;-68
2022/08/10 05:09:48;;;;;;;5.27;4.77;;;15.60;99.90;;;;;;5029997;28;20448;-70
2022/08/10 05:12:15;;;;;;;5.83;4.57;;;15.60;99.90;;;;;;5029742;28;20441;-69
2022/08/10 05:14:41;;;;;;;5.10;4.40;;;15.60;99.90;;;;;;5029589;28;20468;-67
2022/08/10 05:17:08;;;;;;;8.90;5.00;;;15.70;99.90;;;;;;5029607;28;20469;-68
2022/08/10 05:19:35;;;;;;;5.27;4.80;;;15.70;99.90;;;;;;5029636;28;20481;-69
2022/08/10 05:22:03;;;;;;;4.80;4.40;;;15.70;99.90;;;;;;5029509;28;20449;-69
2022/08/10 05:24:31;;;;;;;5.43;4.97;;;15.80;99.90;;;;;;5029610;28;20481;-68
2022/08/10 05:26:58;;;;;;;5.93;5.37;;;15.80;99.90;;;;;;5029518;28;20497;-68
2022/08/10 05:29:25;;;;;;;5.50;5.00;;;15.80;99.90;;;;;;5029997;28;20827;-68
2022/08/10 05:31:52;;;;;;;5.33;4.60;;;15.80;99.90;;;;;;5029914;28;20453;-68
2022/08/10 05:34:25;;;;;;;5.63;5.07;;;15.90;99.90;;;;;;5029731;28;20445;-66
2022/08/10 05:36:52;;;;;;;5.00;4.43;;;16.00;99.90;;;;;;5032681;28;20473;-67
2022/08/10 05:39:21;;;;;;;7.33;5.20;;;16.00;99.90;;;;;;5033661;28;20452;-69
2022/08/10 05:41:52;;;;;;;6.50;4.97;;;16.10;99.90;;;;;;5033478;28;20457;-69
2022/08/10 05:44:20;;;;;;;7.60;4.90;;;16.30;99.90;;;;;;5033388;28;21048;-67
2022/08/10 05:46:47;;;;;;;4.97;4.20;;;16.30;99.90;;;;;;5033015;28;20481;-67
2022/08/10 05:49:14;;;;;;;7.23;4.83;;;16.40;99.90;;;;;;5033151;28;20466;-67
2022/08/10 05:51:42;;;;;;;8.00;4.30;;;16.60;99.90;;;;;;5033152;28;20835;-67
2022/08/10 05:54:14;;;;;;;7.47;3.93;;;16.80;99.90;;;;;;5034185;28;20449;-67
2022/08/10 05:56:42;;;;;;;5.40;4.70;;;17.20;99.90;;;;;;5033975;28;20480;-67
2022/08/10 05:59:11;;;;;;;5.00;4.60;;;17.30;99.90;;;;;;5033484;28;20452;-70
2022/08/10 06:01:41;;;;;;;4.60;4.20;;;17.40;99.90;;;;;;5032924;28;20459;-67
2022/08/10 06:04:11;;;;;;;7.80;4.70;;;17.40;99.90;;;;;;5033317;28;20546;-67
2022/08/10 06:06:39;;;;;;;8.40;4.50;;;17.50;99.90;;;;;;5032730;28;20470;-67
2022/08/10 06:09:08;;;;;;;5.43;4.60;;;17.60;99.90;;;;;;5032813;28;20448;-67
2022/08/10 06:11:37;;;;;;;5.53;4.37;;;17.60;99.90;;;;;;5032881;28;20502;-68
2022/08/10 06:16:53;;;;;;;5.93;4.10;;;17.90;99.90;;;;;;5032590;28;20459;-67
2022/08/10 06:19:20;;;;;;;5.37;3.93;;;18.00;99.90;;;;;;5032878;28;20455;-66
2022/08/10 06:21:48;;;;;;;4.77;4.27;;;18.00;99.90;;;;;;5032760;28;20453;-68
2022/08/10 06:24:16;;;;;;;5.13;4.30;;;18.20;99.90;;;;;;5032664;28;20480;-66
2022/08/10 06:26:43;;;;;;;3.80;3.50;;;18.30;99.90;;;;;;5031980;28;20484;-67
2022/08/10 06:29:13;;;;;;;5.20;3.43;;;18.40;99.90;;;;;;5032684;28;20449;-67
2022/08/10 06:31:43;;;;;;;4.50;3.23;;;18.50;99.90;;;;;;5032476;28;20459;-67
2022/08/10 06:34:14;;;;;;;5.30;3.60;;;18.60;99.90;;;;;;5032440;28;20486;-67
2022/08/10 06:36:43;;;;;;;7.27;4.23;;;18.70;99.90;;;;;;5032217;28;20548;-67
2022/08/10 06:39:11;;;;;;;7.27;3.77;;;18.90;99.90;;;;;;5032277;28;20449;-67
2022/08/10 06:41:45;;;;;;;4.40;3.60;;;19.00;99.90;;;;;;5032540;28;20481;-67
2022/08/10 06:44:25;;;;;;;5.80;3.30;;;19.10;99.90;;;;;;5032132;28;21088;-67
2022/08/10 06:46:54;;;;;;;5.53;3.63;;;19.20;99.90;;;;;;5031311;28;20988;-67
2022/08/10 06:49:23;;;;;;;4.93;3.70;;;19.40;99.90;;;;;;5032816;28;20453;-67
2022/08/10 06:51:54;;;;;;;4.00;3.60;;;19.50;99.90;;;;;;5032891;28;21001;-68
2022/08/10 06:54:24;;;;;;;6.30;3.40;;;19.60;99.90;;;;;;5032913;28;20436;-67
2022/08/10 06:56:54;;;;;;;5.20;3.77;;;19.70;99.90;;;;;;5032801;28;20986;-68
2022/08/10 06:59:24;;;;;;;3.57;3.00;;;19.80;99.90;;;;;;5032872;28;20459;-68
2022/08/10 07:01:58;;;;;;;3.00;2.70;;;19.90;99.90;;;;;;5032042;28;20851;-67
2022/08/10 07:04:30;;;;;;;4.47;3.17;;;20.20;99.90;;;;;;5031833;28;20986;-65
2022/08/10 07:07:00;;;;;;;4.20;3.40;;;20.20;99.90;;;;;;5031626;28;20475;-68
2022/08/10 07:09:28;;;;;;;3.83;3.20;;;20.30;99.90;;;;;;5031747;28;20962;-68
2022/08/10 07:11:56;;;;;;;3.70;3.40;;;20.40;99.10;;;;;;5031851;28;20825;-68
2022/08/10 07:14:24;;;;;;;7.03;3.00;;;20.50;99.90;;;;;;5031692;28;20483;-68
2022/08/10 07:16:52;;;;;;;4.33;3.47;;;20.70;98.00;;;;;;5031355;28;20535;-68
2022/08/10 07:19:21;;;;;;;3.50;3.20;;;20.90;97.40;;;;;;5031602;28;20452;-68
2022/08/10 07:21:51;;;;;;;4.97;3.20;;;21.10;96.80;;;;;;5031568;28;20510;-68
2022/08/10 07:24:19;;;;;;;3.40;3.03;;;21.20;97.80;;;;;;5031556;28;20485;-68
2022/08/10 07:26:49;;;;;;;3.90;3.20;;;21.20;96.80;;;;;;5031211;28;20477;-68
2022/08/10 07:29:17;;;;;;;4.23;3.37;;;21.30;96.60;;;;;;5031583;28;20451;-67
2022/08/10 07:31:44;;;;;;;4.67;3.03;;;21.50;95.50;;;;;;5031608;28;20491;-68
2022/08/10 07:34:14;;;;;;;5.10;3.20;;;21.60;94.40;;;;;;5031713;28;20445;-68
2022/08/10 07:36:44;;;;;;;4.53;2.87;;;21.70;95.00;;;;;;5031145;28;20476;-68
2022/08/10 07:39:14;;;;;;;5.03;2.70;;;21.80;95.90;;;;;;5031663;28;20448;-68
2022/08/10 07:41:42;;;;;;;5.40;2.93;;;22.00;95.00;;;;;;5031420;28;20455;-67
2022/08/10 07:44:11;;;;;;;3.83;3.20;;;22.00;94.80;;;;;;5031451;28;20491;-68
2022/08/10 07:46:44;;;;;;;3.80;3.10;;;22.10;93.50;;;;;;5030668;28;20465;-68
2022/08/10 07:49:17;;;;;;;4.50;2.90;;;22.30;93.80;;;;;;5031128;28;20537;-68
2022/08/10 07:51:44;;;;;;;4.73;2.83;;;22.40;94.80;;;;;;5031108;28;20455;-68
2022/08/10 07:54:15;;;;;;;5.13;2.90;;;22.50;93.50;;;;;;5030802;28;20449;-68
2022/08/10 07:56:45;;;;;;;5.53;2.60;;;22.70;92.20;;;;;;5030748;28;20887;-67
2022/08/10 07:59:17;;;;;;;4.00;3.40;;;22.90;92.70;;;;;;5030708;28;20448;-67
2022/08/10 08:01:50;;;;;;;5.60;2.40;;;23.00;92.70;;;;;;5030567;28;20437;-67
2022/08/10 08:04:18;;;;;;;2.83;2.40;;;23.20;92.20;;;;;;5030696;28;20313;-67
2022/08/10 08:06:49;;;;;;;3.90;2.40;;;23.40;91.00;;;;;;5030579;28;20469;-67
2022/08/10 08:09:19;;;;;;;3.80;2.50;;;23.50;90.40;;;;;;5030866;28;20451;-67
2022/08/10 08:11:48;;;;;;;3.60;2.50;;;23.70;90.50;;;;;;5030848;28;20817;-67
2022/08/10 08:14:16;;;;;;;4.67;2.80;;;23.90;89.00;;;;;;5030647;28;20445;-67
2022/08/10 08:16:46;;;;;;;4.00;2.53;;;24.10;89.20;;;;;;5030308;28;20468;-67
2022/08/10 08:19:14;;;;;;;6.00;2.90;;;24.20;87.00;;;;;;5030483;28;20449;-67
2022/08/10 08:21:42;;;;;;;2.97;2.50;;;24.40;86.90;;;;;;5030603;28;20445;-67
2022/08/10 08:24:12;;;;;;;6.53;3.33;;;24.50;86.30;;;;;;5030426;28;20885;-67
2022/08/10 08:26:42;;;;;;;3.97;2.10;;;24.60;82.00;;;;;;5029936;28;20487;-68
2022/08/10 08:29:11;;;;;;;3.00;2.27;;;24.70;83.50;;;;;;5030551;28;20528;-68
2022/08/10 08:31:39;;;;;;;4.20;2.57;;;24.80;82.10;;;;;;5030175;28;20548;-67
2022/08/10 08:34:08;;;;;;;5.20;2.77;;;25.00;83.10;;;;;;5030185;28;20447;-67
2022/08/10 08:36:39;;;;;;;5.13;2.53;;;25.00;81.50;;;;;;5030020;28;20468;-67
2022/08/10 08:39:06;;;;;;;3.60;2.20;;;25.20;79.60;;;;;;5030326;28;20445;-67
2022/08/10 08:41:58;;;;;;;5.37;2.40;;;25.30;79.00;;;;;;5030472;28;20453;-67
2022/08/10 08:44:38;;;;;;;3.00;2.00;;;25.40;79.80;;;;;;5029826;28;20995;-66
2022/08/10 08:47:24;;;;;;;3.33;2.47;;;25.50;76.00;;;;;;5030160;28;20465;-68
2022/08/10 08:50:10;;;;;;;5.33;2.10;;;25.50;75.50;;;;;;5030036;28;20855;-68
2022/08/10 08:52:50;;;;;;;5.67;2.43;;;25.70;76.00;;;;;;5029876;28;20445;-68
2022/08/10 08:55:28;;;;;;;3.07;2.10;;;25.80;73.60;;;;;;5029832;28;20445;-68
2022/08/10 08:58:07;;;;;;;4.23;2.30;;;25.80;71.40;;;;;;5029825;28;20449;-67
2022/08/10 09:00:42;;;;;;;2.43;2.20;;;25.90;71.40;;;;;;5029912;28;20847;-68
2022/08/10 09:03:50;;;;;;;8.80;1.90;;;26.00;71.50;;;;;;5029826;28;20506;-68
2022/08/10 09:06:35;;;;;;;3.70;2.33;;;26.10;69.20;;;;;;4948948;29;20468;-68
2022/08/10 09:09:18;;;;;;;5.77;2.20;;;26.20;67.80;;;;;;5027011;28;20456;-67
2022/08/10 09:12:03;;;;;;;3.60;1.90;;;26.40;67.70;;;;;;5029124;28;20454;-67
2022/08/10 09:14:44;;;;;;;6.43;2.17;;;26.50;64.10;;;;;;5029669;28;20451;-67
2022/08/10 09:17:18;;;;;;;3.50;1.97;;;26.60;61.80;;;;;;5029714;28;20475;-68
2022/08/10 09:19:49;;;;;;;5.07;2.47;;;26.60;60.90;;;;;;5030084;28;20444;-68
2022/08/10 09:22:25;;;;;;;4.83;2.13;;;26.70;62.90;;;;;;5029872;28;20576;-68
2022/08/10 09:24:58;;;;;;;3.37;1.90;;;26.90;61.40;;;;;;5029230;28;20495;-68
2022/08/10 09:27:32;;;;;;;3.53;2.50;;;26.90;59.70;;;;;;5031336;28;20534;-68
2022/08/10 09:30:06;;;;;;;4.97;1.97;;;27.20;61.20;;;;;;5029628;28;20961;-68
2022/08/10 09:32:41;;;;;;;4.97;2.43;;;27.20;58.60;;;;;;5029882;28;20449;-68
2022/08/10 09:35:16;;;;;;;4.17;1.97;;;27.20;58.60;;;;;;5029304;28;21221;-68
2022/08/10 09:37:51;;;;;;;4.47;2.67;;;27.10;57.60;;;;;;5029480;28;20464;-68
2022/08/10 09:40:25;;;;;;;4.10;2.20;;;27.20;57.30;;;;;;5029484;28;20455;-68
2022/08/10 09:43:01;;;;;;;4.30;2.10;;;27.30;58.30;;;;;;5029748;28;20455;-69
2022/08/10 09:45:39;;;;;;;4.00;2.53;;;27.60;57.40;;;;;;5029192;28;20488;-70
2022/08/10 09:48:13;;;;;;;4.93;2.10;;;28.20;57.70;;;;;;5029820;28;20459;-69
2022/08/10 09:50:54;;;;;;;3.60;1.97;;;28.90;57.70;;;;;;5029853;28;20444;-69
2022/08/10 09:53:28;;;;;;;3.20;1.60;;;29.40;52.20;;;;;;5030054;28;20831;-68
2022/08/10 09:56:06;;;;;;;3.53;1.50;;;29.80;51.50;;;;;;5029246;28;20552;-68
2022/08/10 09:58:42;;;;;;;4.20;1.80;;;30.30;48.00;;;;;;5029567;28;20926;-69
2022/08/10 10:01:19;;;;;;;4.63;2.20;;;30.20;48.40;;;;;;5029284;28;20455;-69
2022/08/10 10:03:54;;;;;;;2.63;1.70;;;30.50;48.30;;;;;;5030448;28;20445;-69
2022/08/10 10:06:28;;;;;;;3.70;1.63;;;30.90;48.30;;;;;;5028885;28;20990;-69
2022/08/10 10:09:01;;;;;;;3.47;1.60;;;31.10;47.40;;;;;;5029183;28;20449;-69
2022/08/10 10:11:36;;;;;;;7.40;2.00;;;30.60;48.00;;;;;;5029204;28;20453;-67
2022/08/10 10:14:15;;;;;;;4.37;1.60;;;30.60;48.20;;;;;;5029274;28;20464;-69
2022/08/10 10:17:02;;;;;;;4.50;1.97;;;30.80;49.00;;;;;;5029023;28;20469;-70
2022/08/10 10:19:54;;;;;;;4.47;2.00;;;30.70;49.70;;;;;;5029199;28;20444;-69
2022/08/10 10:22:38;;;;;;;4.27;2.00;;;30.90;47.70;;;;;;5031154;28;20980;-69
2022/08/10 10:25:13;;;;;;;4.40;1.87;;;30.80;47.60;;;;;;5032512;28;20477;-69
2022/08/10 10:27:46;;;;;;;3.90;1.97;;;30.80;48.30;;;;;;5032541;28;20494;-69
2022/08/10 10:30:16;;;;;;;2.50;1.83;;;30.90;50.30;;;;;;5032720;28;20488;-69
2022/08/10 10:32:57;;;;;;;2.33;1.50;;;30.90;48.30;;;;;;5033038;28;20460;-69
2022/08/10 10:35:29;;;;;;;5.23;1.90;;;31.30;47.80;;;;;;5032538;28;20456;-69
2022/08/10 10:37:58;;;;;;;4.40;1.53;;;31.40;47.50;;;;;;5033288;28;20471;-69
2022/08/10 10:40:32;;;;;;;2.70;1.50;;;31.60;46.90;;;;;;5033078;28;20444;-69
2022/08/10 10:43:08;;;;;;;3.17;2.10;;;31.30;45.80;;;;;;5032266;28;20456;-69
2022/08/10 10:45:47;;;;;;;3.30;1.87;;;31.30;46.70;;;;;;5031940;28;20495;-69
2022/08/10 10:48:22;;;;;;;4.53;1.67;;;31.10;47.30;;;;;;5032325;28;20440;-69
2022/08/10 10:51:00;;;;;;;3.70;1.70;;;31.20;47.20;;;;;;5032168;28;20455;-69
2022/08/10 10:53:34;;;;;;;4.70;1.90;;;31.40;47.60;;;;;;5032297;28;20583;-69
2022/08/10 10:56:09;;;;;;;4.00;1.87;;;31.90;47.80;;;;;;5031935;28;20472;-69
2022/08/10 10:58:46;;;;;;;2.63;1.77;;;31.90;45.00;;;;;;5032125;28;20448;-69
2022/08/10 11:01:24;;;;;;;4.37;1.90;;;31.70;46.40;;;;;;5032097;28;20452;-69
2022/08/10 11:04:04;;;;;;;2.30;1.47;;;31.50;46.00;;;;;;5031798;28;20455;-69
2022/08/10 11:06:44;;;;;;;2.47;1.50;;;32.00;46.30;;;;;;5031534;28;20488;-69
2022/08/10 11:09:15;;;;;;;2.90;2.00;;;32.30;45.00;;;;;;5031928;28;20456;-69
2022/08/10 11:11:45;;;;;;;3.40;1.50;;;32.60;46.30;;;;;;5031841;28;20536;-68
2022/08/10 11:14:23;;;;;;;3.13;1.60;;;33.10;45.10;;;;;;5031546;28;20457;-69
2022/08/10 11:16:58;;;;;;;4.67;1.80;;;33.30;43.10;;;;;;5031580;28;20480;-69
2022/08/10 11:19:36;;;;;;;2.60;1.67;;;32.60;42.90;;;;;;5031765;28;20453;-69
2022/08/10 11:22:10;;;;;;;2.20;1.30;;;32.30;43.60;;;;;;5031724;28;20459;-69
2022/08/10 11:24:43;;;;;;;4.57;1.77;;;31.90;44.50;;;;;;5031204;28;20449;-69
2022/08/10 11:27:17;;;;;;;5.30;1.90;;;31.80;43.90;;;;;;5031435;28;20587;-68
2022/08/10 11:29:51;;;;;;;2.83;2.43;;;32.30;44.70;;;;;;5031565;28;20865;-68
2022/08/10 11:32:24;;;;;;;3.03;1.60;;;32.80;44.60;;;;;;5031472;28;20444;-68
2022/08/10 11:34:59;;;;;;;4.90;2.23;;;33.30;43.30;;;;;;5030481;28;20874;-69
2022/08/10 11:37:35;;;;;;;3.90;1.60;;;33.50;42.30;;;;;;5031397;28;20464;-69
2022/08/10 11:40:11;;;;;;;2.53;1.70;;;33.30;42.40;;;;;;5031180;28;20947;-68
2022/08/10 11:42:43;;;;;;;2.50;1.73;;;33.30;43.00;;;;;;5031359;28;20466;-69
2022/08/10 11:45:13;;;;;;;2.30;1.43;;;33.70;43.30;;;;;;5030791;28;20486;-69
2022/08/10 11:47:46;;;;;;;2.70;1.87;;;34.00;44.40;;;;;;5031280;28;20911;-68
2022/08/10 11:50:21;;;;;;;5.07;1.40;;;34.70;43.10;;;;;;5031289;28;20449;-69
2022/08/10 11:52:56;;;;;;;3.73;1.80;;;34.90;41.30;;;;;;5031739;28;20448;-68
2022/08/10 11:55:25;;;;;;;2.50;1.73;;;34.90;41.40;;;;;;5030723;28;20448;-68
2022/08/10 11:57:57;;;;;;;3.40;1.70;;;34.80;41.90;;;;;;5030885;28;20464;-67
2022/08/10 12:00:24;;;;;;;2.97;2.20;;;35.00;40.70;;;;;;5031323;28;20463;-69
2022/08/10 12:02:55;;;;;;;3.80;1.97;;;35.30;41.10;;;;;;5031088;28;20441;-68
2022/08/10 12:05:27;;;;;;;2.87;1.80;;;35.10;40.30;;;;;;5030867;28;20476;-68
2022/08/10 12:07:57;;;;;;;3.63;1.90;;;34.60;42.90;;;;;;5030920;28;20469;-67
2022/08/10 12:10:26;;;;;;;4.10;2.13;;;34.60;41.50;;;;;;5030717;28;20453;-68
2022/08/10 12:12:58;;;;;;;5.60;2.00;;;34.10;40.40;;;;;;5030715;28;20463;-68
2022/08/10 12:15:32;;;;;;;4.00;1.90;;;33.50;42.70;;;;;;5030311;28;20449;-69
2022/08/10 12:18:04;;;;;;;3.13;1.43;;;33.90;42.30;;;;;;5030562;28;20506;-69
2022/08/10 12:20:35;;;;;;;2.60;1.80;;;34.20;41.70;;;;;;5030318;28;20453;-69
2022/08/10 12:23:13;;;;;;;3.27;1.60;;;35.00;42.00;;;;;;5030561;28;20445;-69
2022/08/10 12:25:47;;;;;;;2.90;1.60;;;35.70;40.40;;;;;;5029714;28;20485;-69
2022/08/10 12:28:18;;;;;;;4.30;1.60;;;36.20;39.70;;;;;;5030353;28;20456;-69
2022/08/10 12:30:51;;;;;;;5.63;1.63;;;36.60;39.00;;;;;;5030216;28;20964;-69
2022/08/10 12:33:23;;;;;;;4.80;1.60;;;36.30;37.40;;;;;;5030103;28;20799;-69
2022/08/10 12:36:02;;;;;;;3.80;2.03;;;36.30;39.70;;;;;;5030027;28;20472;-69
2022/08/10 12:38:36;;;;;;;2.30;1.63;;;36.80;38.70;;;;;;5030120;28;20452;-69
2022/08/10 12:41:07;;;;;;;2.40;1.60;;;37.50;37.00;;;;;;5030223;28;20448;-69
2022/08/10 12:43:41;;;;;;;3.60;1.40;;;38.00;36.70;;;;;;5030101;28;21154;-69
2022/08/10 12:46:19;;;;;;;4.57;1.50;;;37.80;36.70;;;;;;5029052;28;20502;-69
2022/08/10 12:48:54;;;;;;;3.50;1.60;;;37.80;35.90;;;;;;5030166;28;20456;-69
2022/08/10 12:51:29;;;;;;;2.60;1.90;;;37.90;37.20;;;;;;5030083;28;20435;-69
2022/08/10 12:54:02;;;;;;;2.37;1.77;;;38.00;38.70;;;;;;5029977;28;20452;-69
2022/08/10 12:56:36;;;;;;;7.13;1.60;;;38.00;35.20;;;;;;5029705;28;20522;-70
2022/08/10 12:59:05;;;;;;;3.10;1.77;;;38.30;36.30;;;;;;5030021;28;20456;-69
2022/08/10 13:01:35;;;;;;;3.30;1.77;;;38.60;36.50;;;;;;5029776;28;20951;-69
2022/08/10 13:04:06;;;;;;;2.53;1.63;;;38.40;33.90;;;;;;5029762;28;20448;-69
2022/08/10 13:06:40;;;;;;;3.03;1.50;;;37.90;34.70;;;;;;5029303;28;20523;-69
2022/08/10 13:09:11;;;;;;;4.87;1.77;;;37.40;36.80;;;;;;5029928;28;20845;-69
2022/08/10 13:11:42;;;;;;;4.00;1.80;;;37.20;35.80;;;;;;5029917;28;20453;-69
2022/08/10 13:14:14;;;;;;;2.20;1.47;;;37.00;34.80;;;;;;5029744;28;20947;-69